Time;durP1;ratioP1;P1;durP2;ratioP2;P2;SDS_P1;SDS_P2;PMS_P1;PMS_P2;Temp;Humidity;BMP_temperature;BMP_pressure;BME280_temperature;BME280_humidity;BME280_pressure;Samples;Min_cycle;Max_cycle;Signal;HPM_P1;HPM_P2
2021/10/18 00:02:19;;;;;;;7.60;6.90;;;5.80;84.30;;;;;;5220880;28;20049;-67
2021/10/18 00:04:51;;;;;;;8.13;7.32;;;5.80;84.00;;;;;;5221655;28;20045;-67
2021/10/18 00:07:23;;;;;;;7.35;6.65;;;5.80;83.90;;;;;;5219486;28;20150;-67
2021/10/18 00:09:55;;;;;;;7.80;7.07;;;5.90;84.30;;;;;;5218497;28;20743;-66
2021/10/18 00:12:27;;;;;;;7.20;6.55;;;5.90;83.70;;;;;;5220353;28;20627;-66
2021/10/18 00:14:59;;;;;;;7.30;6.60;;;5.90;83.80;;;;;;5219925;28;20090;-66
2021/10/18 00:17:32;;;;;;;7.60;6.90;;;5.90;84.00;;;;;;5218704;28;20590;-67
2021/10/18 00:20:07;;;;;;;7.85;6.90;;;5.90;84.10;;;;;;5220759;28;20124;-66
2021/10/18 00:22:39;;;;;;;7.60;6.93;;;6.00;83.80;;;;;;5219533;28;20156;-66
2021/10/18 00:25:11;;;;;;;7.55;6.85;;;5.90;83.80;;;;;;5220591;28;20045;-67
2021/10/18 00:27:43;;;;;;;8.00;7.30;;;5.90;83.50;;;;;;5220237;28;20527;-66
2021/10/18 00:30:15;;;;;;;8.23;7.43;;;6.00;83.50;;;;;;5220586;28;20414;-67
2021/10/18 00:32:48;;;;;;;7.78;7.10;;;6.00;83.70;;;;;;5220214;28;20044;-68
2021/10/18 00:35:20;;;;;;;7.85;7.03;;;6.00;83.40;;;;;;5224033;28;20127;-67
2021/10/18 00:37:52;;;;;;;7.95;7.25;;;6.00;83.50;;;;;;5224833;28;20117;-67
2021/10/18 00:40:23;;;;;;;7.80;7.10;;;6.00;83.40;;;;;;5223349;28;20111;-66
2021/10/18 00:42:56;;;;;;;7.93;7.22;;;6.00;83.20;;;;;;5226500;28;20438;-68
2021/10/18 00:45:28;;;;;;;8.27;7.45;;;6.00;83.20;;;;;;5221717;28;20045;-67
2021/10/18 00:48:01;;;;;;;7.70;7.00;;;6.00;82.90;;;;;;5225620;28;20040;-67
2021/10/18 00:50:33;;;;;;;8.07;7.38;;;6.10;83.10;;;;;;5222883;28;20540;-67
2021/10/18 00:53:05;;;;;;;8.32;7.60;;;6.10;83.00;;;;;;5224466;28;20376;-66
2021/10/18 00:55:37;;;;;;;8.20;7.47;;;6.10;82.90;;;;;;5223978;28;20450;-66
2021/10/18 00:58:09;;;;;;;8.13;7.32;;;6.10;82.80;;;;;;5221907;28;20132;-67
2021/10/18 01:00:41;;;;;;;7.70;7.00;;;6.10;82.90;;;;;;5221303;28;20517;-67
2021/10/18 01:03:15;;;;;;;8.20;7.50;;;6.10;82.60;;;;;;5224759;28;20506;-67
2021/10/18 01:05:48;;;;;;;7.80;7.00;;;6.10;83.20;;;;;;5222332;28;20115;-67
2021/10/18 01:08:20;;;;;;;8.00;7.30;;;6.00;83.00;;;;;;5224418;28;20041;-69
2021/10/18 01:10:52;;;;;;;8.60;7.80;;;6.00;82.40;;;;;;5222711;28;20656;-67
2021/10/18 01:13:24;;;;;;;8.10;7.40;;;6.00;82.10;;;;;;5225918;28;20128;-68
2021/10/18 01:15:57;;;;;;;8.15;7.30;;;6.00;82.10;;;;;;5221781;28;20677;-66
2021/10/18 01:18:29;;;;;;;8.32;7.63;;;6.00;82.40;;;;;;5222114;28;20086;-67
2021/10/18 01:21:02;;;;;;;7.57;6.88;;;6.00;82.10;;;;;;5221709;28;20138;-67
2021/10/18 01:23:34;;;;;;;8.05;7.28;;;6.00;82.60;;;;;;5223086;28;20037;-67
2021/10/18 01:26:06;;;;;;;7.97;7.22;;;6.00;82.70;;;;;;5221856;28;20118;-67
2021/10/18 01:28:38;;;;;;;8.32;7.57;;;6.00;82.90;;;;;;5223581;28;20070;-67
2021/10/18 01:31:10;;;;;;;8.02;7.32;;;6.00;82.90;;;;;;5219965;28;20049;-66
2021/10/18 01:33:42;;;;;;;8.02;7.25;;;6.00;83.10;;;;;;5222060;28;20060;-67
2021/10/18 01:36:14;;;;;;;8.27;7.57;;;6.00;83.20;;;;;;5220750;28;20052;-67
2021/10/18 01:38:47;;;;;;;8.48;7.68;;;6.00;83.20;;;;;;5223489;28;20143;-67
2021/10/18 01:41:18;;;;;;;7.97;7.28;;;6.00;82.90;;;;;;5224079;28;20053;-69
2021/10/18 01:43:50;;;;;;;7.60;6.90;;;6.00;83.20;;;;;;5223393;28;20143;-67
2021/10/18 01:46:22;;;;;;;7.88;7.18;;;6.00;83.20;;;;;;5221677;28;20040;-66
2021/10/18 01:48:54;;;;;;;8.20;7.40;;;6.00;83.00;;;;;;5222967;28;20075;-67
2021/10/18 01:51:26;;;;;;;8.02;7.25;;;6.00;82.40;;;;;;5225306;28;20136;-66
2021/10/18 01:53:58;;;;;;;7.85;7.15;;;5.90;82.70;;;;;;5221375;28;20080;-66
2021/10/18 01:56:31;;;;;;;7.95;7.25;;;5.90;83.40;;;;;;5221130;28;20059;-66
2021/10/18 01:59:03;;;;;;;7.93;7.22;;;5.90;83.10;;;;;;5223323;28;20044;-66
2021/10/18 02:01:35;;;;;;;7.75;7.05;;;5.80;82.20;;;;;;5222878;28;20048;-66
2021/10/18 02:04:08;;;;;;;8.07;7.28;;;5.80;82.80;;;;;;5219068;28;20029;-66
2021/10/18 02:06:39;;;;;;;8.05;7.35;;;5.70;83.40;;;;;;5221760;28;20550;-65
2021/10/18 02:09:11;;;;;;;7.63;6.97;;;5.70;82.80;;;;;;5220533;28;20051;-66
2021/10/18 02:11:43;;;;;;;7.72;7.03;;;5.80;82.70;;;;;;5222878;28;20422;-66
2021/10/18 02:14:15;;;;;;;7.82;7.13;;;5.80;82.90;;;;;;5220657;28;20068;-66
2021/10/18 02:16:47;;;;;;;7.95;7.20;;;5.70;83.50;;;;;;5219595;28;20045;-66
2021/10/18 02:19:19;;;;;;;8.20;7.45;;;5.80;83.80;;;;;;5223190;28;20119;-66
2021/10/18 02:21:51;;;;;;;8.35;7.63;;;5.70;83.90;;;;;;5223155;28;20121;-66
2021/10/18 02:24:23;;;;;;;8.30;7.60;;;5.70;84.70;;;;;;5223114;28;20148;-66
2021/10/18 02:26:54;;;;;;;7.90;7.20;;;5.80;83.80;;;;;;5221825;28;20534;-66
2021/10/18 02:29:26;;;;;;;8.35;7.65;;;5.80;84.00;;;;;;5221599;28;20041;-66
2021/10/18 02:31:58;;;;;;;7.90;7.20;;;5.80;84.10;;;;;;5222096;28;20049;-66
2021/10/18 02:34:30;;;;;;;8.38;7.57;;;5.80;83.30;;;;;;5221979;28;20414;-66
2021/10/18 02:37:02;;;;;;;8.10;7.40;;;5.80;82.20;;;;;;5221472;28;20059;-66
2021/10/18 02:39:34;;;;;;;8.55;7.75;;;5.70;82.10;;;;;;5221142;28;20486;-66
2021/10/18 02:42:06;;;;;;;8.00;7.30;;;5.60;82.60;;;;;;5222332;28;20053;-66
2021/10/18 02:44:38;;;;;;;7.75;7.03;;;5.50;83.40;;;;;;5223981;28;20099;-66
2021/10/18 02:47:09;;;;;;;8.77;7.60;;;5.50;83.50;;;;;;5221240;28;20041;-67
2021/10/18 02:49:41;;;;;;;8.15;7.30;;;5.40;83.00;;;;;;5221803;28;20541;-66
2021/10/18 02:52:13;;;;;;;8.15;7.35;;;5.40;82.90;;;;;;5220135;28;20331;-67
2021/10/18 02:54:45;;;;;;;8.55;7.65;;;5.40;83.10;;;;;;5220843;28;20076;-66
2021/10/18 02:57:17;;;;;;;7.82;7.13;;;5.40;83.00;;;;;;5218944;28;20147;-67
2021/10/18 02:59:49;;;;;;;7.57;6.88;;;5.40;82.80;;;;;;5219928;28;20040;-66
2021/10/18 03:02:21;;;;;;;7.97;7.18;;;5.40;83.40;;;;;;5220358;28;20037;-67
2021/10/18 03:04:53;;;;;;;7.70;7.00;;;5.30;83.50;;;;;;5220562;28;20045;-66
2021/10/18 03:07:25;;;;;;;8.40;7.18;;;5.40;83.30;;;;;;5218776;28;20041;-67
2021/10/18 03:09:57;;;;;;;7.63;6.93;;;5.40;82.90;;;;;;5222515;28;20048;-67
2021/10/18 03:12:28;;;;;;;7.72;7.03;;;5.50;82.60;;;;;;5220064;28;20127;-66
2021/10/18 03:15:02;;;;;;;7.60;6.90;;;5.50;82.70;;;;;;5220992;28;20051;-66
2021/10/18 03:17:34;;;;;;;7.53;6.82;;;5.50;82.50;;;;;;5219735;28;20517;-66
2021/10/18 03:20:08;;;;;;;8.20;7.50;;;5.50;82.00;;;;;;5219820;28;20656;-66
2021/10/18 03:22:40;;;;;;;9.88;7.35;;;5.50;82.00;;;;;;5223755;28;20115;-67
2021/10/18 03:25:15;;;;;;;8.20;7.40;;;5.50;81.90;;;;;;5221712;28;20040;-67
2021/10/18 03:27:47;;;;;;;7.68;6.97;;;5.50;81.90;;;;;;5222535;28;20044;-67
2021/10/18 03:30:19;;;;;;;7.57;6.88;;;5.50;82.20;;;;;;5220568;28;20167;-66
2021/10/18 03:32:50;;;;;;;8.02;7.25;;;5.50;81.80;;;;;;5222016;28;20583;-67
2021/10/18 03:35:23;;;;;;;7.63;6.93;;;5.50;82.10;;;;;;5219489;28;20139;-66
2021/10/18 03:37:55;;;;;;;8.05;7.18;;;5.40;82.10;;;;;;5220084;28;20442;-67
2021/10/18 03:40:29;;;;;;;7.10;6.50;;;5.50;81.90;;;;;;5219201;28;20048;-66
2021/10/18 03:43:01;;;;;;;7.30;6.60;;;5.50;82.40;;;;;;5221313;28;20072;-68
2021/10/18 03:45:33;;;;;;;7.43;6.72;;;5.40;82.40;;;;;;5220047;28;20048;-67
2021/10/18 03:48:05;;;;;;;7.22;6.50;;;5.40;82.20;;;;;;5221011;28;20565;-66
2021/10/18 03:50:37;;;;;;;7.53;6.82;;;5.40;83.00;;;;;;5220292;28;20143;-67
2021/10/18 03:53:09;;;;;;;7.43;6.72;;;5.40;83.10;;;;;;5221025;28;20140;-67
2021/10/18 03:55:42;;;;;;;6.85;6.25;;;5.40;83.80;;;;;;5221444;28;20525;-66
2021/10/18 03:58:14;;;;;;;7.18;6.47;;;5.30;83.50;;;;;;5221166;28;20454;-66
2021/10/18 04:00:46;;;;;;;6.85;6.25;;;5.30;83.30;;;;;;5222035;28;20045;-67
2021/10/18 04:03:18;;;;;;;7.80;7.10;;;5.30;83.10;;;;;;5221578;28;20553;-67
2021/10/18 04:05:50;;;;;;;7.97;7.28;;;5.30;83.70;;;;;;5186207;28;20133;-67
2021/10/18 04:08:24;;;;;;;7.38;6.60;;;5.20;84.50;;;;;;5225628;28;20238;-66
2021/10/18 04:10:56;;;;;;;7.20;6.50;;;5.20;83.70;;;;;;5225544;28;20072;-66
2021/10/18 04:13:28;;;;;;;7.68;6.32;;;5.20;84.40;;;;;;5224753;28;20056;-67
2021/10/18 04:15:59;;;;;;;7.28;6.57;;;5.20;83.60;;;;;;5224107;28;20045;-67
2021/10/18 04:18:32;;;;;;;10.25;6.60;;;5.10;83.60;;;;;;5224457;28;21133;-66
2021/10/18 04:21:05;;;;;;;6.68;6.00;;;5.00;83.90;;;;;;5223327;28;20422;-68
2021/10/18 04:23:37;;;;;;;7.40;6.70;;;5.00;83.60;;;;;;5224600;28;20072;-67
2021/10/18 04:26:09;;;;;;;7.07;6.38;;;5.00;84.20;;;;;;5223539;28;20053;-66
2021/10/18 04:28:41;;;;;;;8.30;6.40;;;4.90;83.80;;;;;;5224217;28;20055;-67
2021/10/18 04:31:13;;;;;;;7.13;6.43;;;5.00;83.70;;;;;;5224625;28;20502;-67
2021/10/18 04:33:45;;;;;;;6.85;6.07;;;5.00;83.60;;;;;;5223724;28;20111;-67
2021/10/18 04:36:17;;;;;;;7.30;6.60;;;4.90;84.50;;;;;;5224706;28;20071;-67
2021/10/18 04:38:49;;;;;;;6.88;6.18;;;5.00;84.80;;;;;;5223512;28;20406;-66
2021/10/18 04:41:22;;;;;;;7.30;6.60;;;4.90;86.10;;;;;;5221147;28;20485;-65
2021/10/18 04:43:54;;;;;;;6.95;6.25;;;5.00;86.30;;;;;;5222472;28;20870;-66
2021/10/18 04:46:26;;;;;;;7.05;5.90;;;5.10;86.30;;;;;;5221617;28;20568;-66
2021/10/18 04:48:58;;;;;;;7.07;6.38;;;5.10;86.00;;;;;;5222773;28;20057;-66
2021/10/18 04:51:30;;;;;;;7.10;6.40;;;5.10;85.80;;;;;;5224277;28;20049;-66
2021/10/18 04:54:02;;;;;;;6.93;6.10;;;5.10;85.70;;;;;;5222750;28;20064;-66
2021/10/18 04:56:33;;;;;;;7.18;6.47;;;5.10;85.20;;;;;;5218411;28;20226;-66
2021/10/18 04:59:07;;;;;;;6.70;6.10;;;5.10;85.50;;;;;;5205416;28;20053;-66
2021/10/18 05:01:39;;;;;;;6.82;5.70;;;5.20;85.00;;;;;;5206379;28;20056;-66
2021/10/18 05:04:11;;;;;;;6.63;5.93;;;5.10;84.60;;;;;;5222828;28;20044;-65
2021/10/18 05:06:43;;;;;;;8.60;6.10;;;5.20;84.30;;;;;;5223419;28;20556;-66
2021/10/18 05:09:14;;;;;;;7.57;6.63;;;5.10;84.70;;;;;;5220984;28;20083;-66
2021/10/18 05:11:46;;;;;;;10.15;6.50;;;5.20;84.20;;;;;;5223366;28;20431;-67
2021/10/18 05:14:18;;;;;;;7.93;6.30;;;5.10;83.50;;;;;;5220697;28;20461;-65
2021/10/18 05:16:52;;;;;;;8.05;6.43;;;5.00;83.50;;;;;;5220175;28;20049;-66
2021/10/18 05:19:25;;;;;;;7.78;6.65;;;5.00;83.40;;;;;;5218937;28;20044;-66
2021/10/18 05:21:57;;;;;;;7.25;5.68;;;5.00;83.60;;;;;;5218434;28;20055;-66
2021/10/18 05:24:28;;;;;;;6.43;5.82;;;5.00;83.30;;;;;;5220329;28;20045;-66
2021/10/18 05:27:00;;;;;;;6.60;6.00;;;5.00;84.10;;;;;;5218898;28;20498;-66
2021/10/18 05:29:32;;;;;;;7.20;5.88;;;5.00;83.30;;;;;;5222467;28;20422;-66
2021/10/18 05:32:05;;;;;;;6.75;6.05;;;5.00;83.90;;;;;;5220439;28;20276;-66
2021/10/18 05:34:37;;;;;;;6.85;5.63;;;5.00;84.10;;;;;;5219833;28;20051;-66
2021/10/18 05:37:09;;;;;;;6.65;5.95;;;5.00;83.90;;;;;;5221926;28;20045;-65
2021/10/18 05:39:40;;;;;;;6.60;5.90;;;5.00;84.40;;;;;;5223460;28;20163;-66
2021/10/18 05:42:12;;;;;;;6.47;5.88;;;5.00;84.30;;;;;;5221477;28;20049;-65
2021/10/18 05:44:44;;;;;;;6.85;6.18;;;5.00;84.50;;;;;;5201156;28;20155;-66
2021/10/18 05:47:16;;;;;;;6.82;6.13;;;5.00;84.50;;;;;;5221114;28;20045;-66
2021/10/18 05:49:48;;;;;;;7.18;6.47;;;5.10;84.50;;;;;;5221338;28;20041;-66
2021/10/18 05:52:22;;;;;;;11.73;9.38;;;5.00;84.40;;;;;;5217708;28;20072;-66
2021/10/18 05:54:54;;;;;;;13.00;10.50;;;5.00;83.70;;;;;;5219475;28;20054;-65
2021/10/18 05:57:26;;;;;;;10.32;8.27;;;5.00;83.60;;;;;;5221250;28;20556;-65
2021/10/18 05:59:58;;;;;;;11.18;8.90;;;5.10;82.90;;;;;;5221818;28;20096;-65
2021/10/18 06:02:30;;;;;;;7.40;6.70;;;5.10;82.50;;;;;;5221694;28;20041;-65
2021/10/18 06:05:02;;;;;;;9.25;7.65;;;5.00;83.20;;;;;;5222372;28;20037;-66
2021/10/18 06:07:34;;;;;;;10.73;8.50;;;5.00;83.40;;;;;;5220307;28;20181;-66
2021/10/18 06:10:08;;;;;;;11.05;9.85;;;5.00;83.10;;;;;;5204161;28;20134;-65
2021/10/18 06:12:40;;;;;;;12.27;9.73;;;5.00;83.10;;;;;;5218022;28;20199;-66
2021/10/18 06:15:13;;;;;;;14.40;11.23;;;5.00;82.90;;;;;;5221815;28;20076;-65
2021/10/18 06:17:46;;;;;;;13.07;10.45;;;5.10;82.50;;;;;;5220949;28;20397;-66
2021/10/18 06:20:20;;;;;;;12.73;9.82;;;5.10;81.80;;;;;;5221118;28;20045;-65
2021/10/18 06:22:52;;;;;;;12.80;9.75;;;5.20;81.60;;;;;;5221506;28;20041;-66
2021/10/18 06:25:25;;;;;;;12.88;10.50;;;5.20;81.60;;;;;;5222445;28;20041;-65
2021/10/18 06:27:57;;;;;;;14.52;10.90;;;5.30;81.20;;;;;;5221542;28;20048;-66
2021/10/18 06:30:29;;;;;;;11.57;9.30;;;5.40;81.10;;;;;;5217539;28;20544;-66
2021/10/18 06:33:03;;;;;;;10.60;9.00;;;5.50;81.00;;;;;;5221513;28;20068;-65
2021/10/18 06:35:36;;;;;;;14.00;9.55;;;5.50;80.80;;;;;;5219834;28;20562;-66
2021/10/18 06:38:10;;;;;;;18.17;12.85;;;5.60;80.70;;;;;;5219901;28;20044;-66
2021/10/18 06:40:44;;;;;;;17.35;13.57;;;5.60;80.70;;;;;;5221430;28;20129;-66
2021/10/18 06:43:18;;;;;;;13.52;10.32;;;5.70;81.40;;;;;;5217331;28;20124;-66
2021/10/18 06:45:50;;;;;;;12.65;10.43;;;5.60;81.50;;;;;;5217134;28;20069;-67
2021/10/18 06:48:22;;;;;;;10.65;9.05;;;5.70;81.10;;;;;;5216778;28;20902;-67
2021/10/18 06:50:55;;;;;;;43.10;30.95;;;5.80;81.30;;;;;;5214327;28;20059;-67
2021/10/18 06:53:32;;;;;;;14.75;11.52;;;5.90;81.30;;;;;;5215457;28;20109;-67
2021/10/18 06:56:05;;;;;;;11.55;9.57;;;5.90;81.20;;;;;;5217052;28;20139;-66
2021/10/18 06:58:37;;;;;;;11.63;8.77;;;6.10;80.90;;;;;;5209787;28;20130;-67
2021/10/18 07:01:09;;;;;;;8.88;7.97;;;6.20;80.80;;;;;;5217777;28;20973;-68
2021/10/18 07:03:41;;;;;;;9.70;7.93;;;6.20;80.90;;;;;;5218514;28;20045;-67
2021/10/18 07:06:13;;;;;;;8.75;7.90;;;6.30;80.70;;;;;;5199701;28;20606;-67
2021/10/18 07:08:45;;;;;;;8.70;7.78;;;6.30;81.60;;;;;;5219308;28;20078;-67
2021/10/18 07:11:16;;;;;;;8.73;7.82;;;6.40;81.40;;;;;;5198563;28;20079;-68
2021/10/18 07:13:48;;;;;;;9.23;7.53;;;6.50;81.20;;;;;;5218948;28;20921;-67
2021/10/18 07:16:20;;;;;;;9.15;8.05;;;6.50;80.60;;;;;;5212506;28;20480;-67
2021/10/18 07:18:52;;;;;;;8.93;7.50;;;6.60;80.40;;;;;;5221494;28;20045;-67
2021/10/18 07:21:24;;;;;;;7.65;6.85;;;6.60;80.80;;;;;;5215552;28;20876;-67
2021/10/18 07:23:58;;;;;;;8.05;6.45;;;6.80;80.70;;;;;;5214083;28;20054;-67
2021/10/18 07:26:31;;;;;;;7.97;6.72;;;6.80;80.50;;;;;;5218226;28;20048;-67
2021/10/18 07:29:13;;;;;;;11.68;6.60;;;6.90;81.10;;;;;;5218003;28;20086;-67
2021/10/18 07:31:44;;;;;;;8.30;6.90;;;7.00;80.90;;;;;;5211323;28;20052;-66
2021/10/18 07:34:18;;;;;;;7.88;6.63;;;7.00;81.10;;;;;;5196401;28;20102;-68
2021/10/18 07:36:50;;;;;;;8.15;6.60;;;7.10;81.90;;;;;;5213811;28;20053;-67
2021/10/18 07:39:24;;;;;;;8.05;7.10;;;7.20;82.30;;;;;;5217428;28;20040;-67
2021/10/18 07:41:58;;;;;;;8.25;7.22;;;7.20;82.20;;;;;;5217303;28;20048;-67
2021/10/18 07:44:30;;;;;;;8.35;7.53;;;7.40;80.50;;;;;;5218335;28;20076;-67
2021/10/18 07:47:02;;;;;;;8.20;7.07;;;7.50;80.90;;;;;;5216131;28;20037;-67
2021/10/18 07:49:36;;;;;;;7.93;7.22;;;7.70;80.30;;;;;;5199850;28;20091;-67
2021/10/18 07:52:12;;;;;;;8.63;7.30;;;7.80;79.80;;;;;;5198443;28;20051;-66
2021/10/18 07:54:46;;;;;;;8.40;7.60;;;7.80;81.20;;;;;;5219249;28;20117;-66
2021/10/18 07:57:18;;;;;;;8.55;7.65;;;8.10;79.80;;;;;;5217887;28;20041;-67
2021/10/18 07:59:50;;;;;;;8.32;7.53;;;8.20;79.10;;;;;;5221428;28;20131;-67
2021/10/18 08:02:22;;;;;;;8.60;7.75;;;8.30;79.80;;;;;;5218123;28;20555;-66
2021/10/18 08:04:54;;;;;;;8.20;7.40;;;8.40;78.30;;;;;;5220844;28;20049;-66
2021/10/18 08:07:27;;;;;;;8.40;7.68;;;8.60;78.60;;;;;;5216563;28;20084;-67
2021/10/18 08:10:00;;;;;;;8.57;7.70;;;8.70;78.80;;;;;;5221738;28;20107;-67
2021/10/18 08:12:34;;;;;;;10.50;8.55;;;8.80;78.00;;;;;;5218534;28;20049;-67
2021/10/18 08:15:06;;;;;;;8.90;7.88;;;9.00;77.30;;;;;;5219007;28;20154;-67
2021/10/18 08:17:38;;;;;;;12.15;7.80;;;9.10;79.10;;;;;;5220325;28;20163;-67
2021/10/18 08:20:10;;;;;;;9.10;8.20;;;9.30;76.10;;;;;;5220744;28;20140;-67
2021/10/18 08:22:43;;;;;;;9.00;8.20;;;9.40;76.90;;;;;;5218310;28;20045;-67
2021/10/18 08:25:15;;;;;;;9.25;8.35;;;9.60;74.30;;;;;;5218863;28;20145;-67
2021/10/18 08:27:47;;;;;;;9.52;8.63;;;9.70;77.60;;;;;;5218444;28;20460;-68
2021/10/18 08:30:20;;;;;;;9.32;8.43;;;9.90;77.00;;;;;;5220526;28;20489;-67
2021/10/18 08:32:52;;;;;;;10.25;8.88;;;10.00;74.30;;;;;;5221564;28;20456;-67
2021/10/18 08:35:24;;;;;;;9.75;8.85;;;10.10;76.60;;;;;;5216908;28;20510;-68
2021/10/18 08:44:13;;;;;;;9.93;8.93;;;10.60;72.50;;;;;;5219763;28;20073;-67
2021/10/18 08:46:22;;;;;;;8.85;8.05;;;10.70;73.20;;;;;;5217948;28;20149;-68
2021/10/18 08:48:55;;;;;;;10.05;8.60;;;10.90;73.00;;;;;;5219586;28;20045;-68
2021/10/18 08:51:28;;;;;;;10.40;9.40;;;11.10;70.90;;;;;;5217856;28;20180;-68
2021/10/18 08:54:00;;;;;;;9.77;8.88;;;11.20;72.10;;;;;;5219047;28;20132;-67
2021/10/18 08:56:55;;;;;;;9.60;8.80;;;11.30;70.50;;;;;;5224348;28;20052;-68
2021/10/18 08:59:27;;;;;;;9.98;9.07;;;11.40;68.10;;;;;;5222430;28;20131;-68
2021/10/18 09:02:02;;;;;;;9.05;8.25;;;11.60;68.00;;;;;;5221071;28;20060;-68
2021/10/18 09:04:39;;;;;;;9.18;8.38;;;11.60;66.20;;;;;;5226845;28;20132;-68
2021/10/18 09:07:18;;;;;;;9.68;8.88;;;11.80;70.80;;;;;;5222242;28;20045;-68
2021/10/18 09:09:51;;;;;;;9.77;8.88;;;12.00;65.60;;;;;;5193693;28;20566;-68
2021/10/18 09:12:28;;;;;;;9.93;9.02;;;12.10;67.90;;;;;;5222228;28;20080;-68
2021/10/18 09:15:24;;;;;;;9.77;8.85;;;12.20;65.30;;;;;;5223412;28;20076;-68
2021/10/18 09:17:58;;;;;;;10.55;9.65;;;12.30;66.90;;;;;;5223227;28;20068;-68
2021/10/18 09:20:36;;;;;;;10.65;9.75;;;12.50;68.50;;;;;;5224246;28;20215;-68
2021/10/18 09:23:18;;;;;;;10.32;9.43;;;12.50;66.50;;;;;;5191691;28;20041;-68
2021/10/18 09:25:51;;;;;;;10.73;9.82;;;12.70;64.30;;;;;;5191954;28;20044;-68
2021/10/18 09:28:26;;;;;;;10.90;9.90;;;12.80;68.70;;;;;;5222446;28;20095;-68
2021/10/18 09:30:58;;;;;;;11.10;9.98;;;12.90;69.30;;;;;;5219180;28;20079;-68
2021/10/18 09:33:38;;;;;;;10.73;9.55;;;13.00;68.60;;;;;;5222173;28;20151;-68
2021/10/18 09:36:14;;;;;;;10.60;9.70;;;13.10;66.00;;;;;;5222173;28;20135;-68
2021/10/18 09:38:46;;;;;;;11.23;10.25;;;13.20;64.70;;;;;;5223872;28;20040;-68
2021/10/18 09:41:24;;;;;;;11.13;10.20;;;13.30;65.70;;;;;;5224107;28;20131;-68
2021/10/18 09:44:04;;;;;;;11.23;10.32;;;13.40;66.70;;;;;;5206753;28;20044;-68
2021/10/18 10:54:03;;;;;;;12.50;11.32;;;15.30;56.40;;;;;;5219203;28;20603;-69
2021/10/18 10:56:31;;;;;;;12.38;11.43;;;15.40;56.60;;;;;;5214619;28;20068;-69
2021/10/18 10:59:17;;;;;;;11.20;10.30;;;15.50;57.70;;;;;;5221300;28;20120;-69
2021/10/18 11:02:03;;;;;;;11.55;10.55;;;15.60;56.60;;;;;;5221014;28;20533;-69
2021/10/18 11:04:36;;;;;;;11.82;10.68;;;15.70;59.00;;;;;;5222220;28;20037;-69
2021/10/18 11:07:10;;;;;;;11.63;10.48;;;15.60;56.10;;;;;;5219910;28;20041;-69
2021/10/18 11:09:45;;;;;;;11.30;10.40;;;15.70;55.80;;;;;;5222318;28;20556;-68
2021/10/18 11:12:17;;;;;;;11.82;10.82;;;15.70;56.60;;;;;;5219488;28;20110;-69
2021/10/18 11:15:18;;;;;;;11.55;10.55;;;15.70;55.10;;;;;;5204622;28;20067;-70
2021/10/18 11:17:52;;;;;;;11.85;10.90;;;15.80;54.80;;;;;;5220930;28;20052;-69
2021/10/18 11:20:27;;;;;;;11.45;10.52;;;15.90;53.80;;;;;;5222783;28;20529;-69
2021/10/18 11:23:02;;;;;;;11.18;10.27;;;15.90;55.40;;;;;;5219446;28;20473;-69
2021/10/18 11:25:37;;;;;;;11.50;10.50;;;15.90;54.20;;;;;;5220037;28;20068;-69
2021/10/18 11:28:09;;;;;;;12.05;11.15;;;16.00;54.90;;;;;;5218183;28;20037;-69
2021/10/18 11:30:42;;;;;;;11.85;10.85;;;16.00;51.10;;;;;;5220884;28;20036;-69
2021/10/18 11:33:15;;;;;;;11.27;10.38;;;16.10;51.60;;;;;;5219858;28;20211;-69
2021/10/18 11:35:47;;;;;;;12.00;11.00;;;16.00;49.20;;;;;;5220058;28;20067;-71
2021/10/18 11:38:25;;;;;;;11.98;11.00;;;16.10;48.40;;;;;;5221677;28;20124;-69
2021/10/18 11:40:58;;;;;;;11.60;10.70;;;16.10;50.70;;;;;;5221369;28;20048;-68
2021/10/18 11:43:34;;;;;;;11.85;10.90;;;16.10;51.30;;;;;;5219841;28;20043;-68
2021/10/18 11:46:05;;;;;;;11.00;10.20;;;16.20;45.90;;;;;;5199698;28;20070;-69
2021/10/18 11:48:37;;;;;;;11.57;10.68;;;16.20;50.30;;;;;;5220634;28;20044;-68
2021/10/18 11:51:10;;;;;;;11.82;10.82;;;16.20;47.20;;;;;;5219963;28;20043;-69
2021/10/18 11:53:45;;;;;;;11.73;10.82;;;16.20;48.30;;;;;;5220481;28;20635;-68
2021/10/18 11:56:18;;;;;;;11.70;10.80;;;16.20;49.30;;;;;;5219773;28;20163;-68
2021/10/18 11:58:50;;;;;;;11.20;10.30;;;16.20;47.20;;;;;;5221878;28;20116;-68
2021/10/18 12:01:25;;;;;;;12.02;11.13;;;16.30;46.80;;;;;;5222910;28;20052;-68
2021/10/18 12:04:00;;;;;;;12.30;11.40;;;16.30;47.20;;;;;;5203068;28;20037;-68
2021/10/18 12:06:46;;;;;;;11.70;10.80;;;16.20;45.40;;;;;;5219603;28;20148;-68
2021/10/18 12:09:28;;;;;;;11.90;11.00;;;16.30;47.00;;;;;;5220837;28;20902;-68
2021/10/18 12:12:11;;;;;;;12.00;11.10;;;16.30;48.70;;;;;;5221195;28;20140;-68
2021/10/18 12:14:59;;;;;;;11.70;10.80;;;16.30;47.50;;;;;;5221991;28;20098;-68
2021/10/18 12:17:34;;;;;;;12.05;11.15;;;16.30;46.10;;;;;;5188608;28;20172;-68
2021/10/18 12:20:06;;;;;;;12.10;11.10;;;16.30;49.50;;;;;;5218461;28;20047;-68
2021/10/18 12:23:05;;;;;;;11.68;10.77;;;16.30;48.60;;;;;;5219012;28;20048;-68
2021/10/18 12:25:38;;;;;;;11.65;10.75;;;16.20;44.50;;;;;;5219070;28;20117;-68
2021/10/18 12:28:27;;;;;;;11.38;10.57;;;16.30;48.10;;;;;;5201230;28;20040;-69
2021/10/18 12:30:59;;;;;;;12.27;11.35;;;16.30;46.90;;;;;;5223429;28;20134;-68
2021/10/18 12:33:40;;;;;;;11.85;10.95;;;16.30;48.00;;;;;;5224814;28;20131;-68
2021/10/18 12:36:15;;;;;;;12.30;11.40;;;16.30;50.60;;;;;;5222861;28;20445;-68
2021/10/18 12:38:47;;;;;;;11.98;11.07;;;16.20;47.80;;;;;;5219878;28;20963;-68
2021/10/18 12:41:19;;;;;;;11.75;10.85;;;16.20;47.60;;;;;;5221770;28;20073;-69
2021/10/18 12:43:51;;;;;;;12.15;11.25;;;16.30;48.10;;;;;;5192144;28;20045;-70
2021/10/18 12:46:26;;;;;;;12.13;11.20;;;16.20;48.70;;;;;;5221269;28;20045;-69
2021/10/18 12:49:06;;;;;;;12.23;11.23;;;16.20;48.50;;;;;;5223997;28;20045;-68
2021/10/18 12:51:47;;;;;;;11.68;10.77;;;16.20;47.50;;;;;;5207718;28;20573;-69
2021/10/18 12:54:27;;;;;;;12.07;11.05;;;16.20;46.60;;;;;;5211229;28;20072;-71
2021/10/18 12:57:12;;;;;;;11.93;10.95;;;16.20;45.80;;;;;;5214461;28;20118;-70
2021/10/18 13:00:08;;;;;;;12.18;11.18;;;16.20;47.70;;;;;;5219881;28;20124;-69
2021/10/18 13:02:46;;;;;;;12.02;11.10;;;16.20;46.40;;;;;;5221078;28;20047;-69
2021/10/18 13:05:20;;;;;;;12.00;11.10;;;16.20;47.40;;;;;;5200189;28;20045;-69
2021/10/18 13:08:00;;;;;;;11.82;10.93;;;16.20;47.10;;;;;;5220668;28;20098;-69
2021/10/18 13:10:34;;;;;;;12.18;11.18;;;16.20;47.90;;;;;;5219371;28;20131;-69
2021/10/18 13:13:12;;;;;;;12.50;11.43;;;16.20;46.90;;;;;;5219816;28;20080;-70
2021/10/18 13:15:46;;;;;;;12.45;11.55;;;16.20;44.40;;;;;;5220351;28;20049;-71
2021/10/18 13:18:19;;;;;;;12.07;11.07;;;16.20;47.60;;;;;;5224445;28;20052;-69
2021/10/18 13:20:55;;;;;;;12.18;11.27;;;16.20;45.20;;;;;;5204823;28;20037;-69
2021/10/18 13:23:30;;;;;;;12.20;11.30;;;16.30;46.90;;;;;;5222548;28;20056;-70
2021/10/18 13:26:05;;;;;;;11.98;11.05;;;16.30;48.10;;;;;;5219586;28;20099;-69
2021/10/18 13:28:37;;;;;;;11.80;10.90;;;16.30;46.10;;;;;;5223451;28;21066;-68
2021/10/18 13:31:09;;;;;;;11.85;10.95;;;16.30;48.80;;;;;;5221153;28;20068;-67
2021/10/18 13:33:41;;;;;;;11.75;10.85;;;16.30;47.60;;;;;;5222994;28;20068;-67
2021/10/18 13:36:15;;;;;;;12.55;11.35;;;16.30;48.30;;;;;;5220984;28;20052;-68
2021/10/18 13:38:46;;;;;;;11.82;10.93;;;16.30;48.40;;;;;;5222624;28;20054;-68
2021/10/18 13:41:18;;;;;;;12.20;11.20;;;16.20;47.80;;;;;;5206435;28;20726;-67
2021/10/18 13:43:50;;;;;;;11.90;11.00;;;16.20;48.80;;;;;;5206442;28;20052;-68
2021/10/18 13:46:22;;;;;;;12.40;11.35;;;16.20;50.20;;;;;;5219813;28;20130;-68
2021/10/18 13:48:54;;;;;;;11.95;11.05;;;16.20;50.60;;;;;;5221642;28;20431;-68
2021/10/18 13:51:26;;;;;;;12.00;11.10;;;16.20;49.90;;;;;;5221493;28;20116;-67
2021/10/18 13:53:59;;;;;;;12.48;11.48;;;16.20;50.10;;;;;;5206370;28;20067;-67
2021/10/18 13:56:31;;;;;;;11.93;11.02;;;16.20;49.60;;;;;;5220838;28;20100;-67
2021/10/18 13:59:03;;;;;;;12.52;11.50;;;16.20;50.00;;;;;;5226047;28;20947;-69
2021/10/18 14:01:35;;;;;;;11.57;10.68;;;16.20;51.00;;;;;;5203338;28;20126;-67
2021/10/18 14:04:07;;;;;;;11.90;11.00;;;16.10;50.80;;;;;;5223306;28;20131;-67
2021/10/18 14:06:46;;;;;;;12.02;11.13;;;16.10;52.00;;;;;;5221715;28;20144;-68
2021/10/18 14:09:18;;;;;;;12.65;11.75;;;16.10;50.40;;;;;;5223319;28;20137;-69
2021/10/18 14:11:50;;;;;;;11.80;10.85;;;16.10;52.80;;;;;;5223017;28;20148;-68
2021/10/18 14:14:22;;;;;;;12.00;11.10;;;16.00;55.30;;;;;;5220976;28;20051;-68
2021/10/18 14:16:54;;;;;;;12.05;11.15;;;16.00;57.10;;;;;;5219743;28;20074;-67
2021/10/18 14:19:26;;;;;;;12.10;11.20;;;16.00;58.20;;;;;;5220226;28;20059;-68
2021/10/18 14:21:58;;;;;;;12.65;11.75;;;16.00;59.70;;;;;;5222401;28;20064;-68
2021/10/18 14:24:37;;;;;;;11.40;10.50;;;15.90;59.20;;;;;;5221333;28;20048;-67
2021/10/18 14:27:09;;;;;;;11.70;10.85;;;15.90;58.70;;;;;;5205440;28;20090;-67
2021/10/18 14:29:41;;;;;;;12.10;11.20;;;15.80;58.30;;;;;;5205965;28;20072;-68
2021/10/18 14:32:13;;;;;;;12.25;11.25;;;15.80;57.80;;;;;;5203471;28;20049;-68